Time;durP1;ratioP1;P1;durP2;ratioP2;P2;SDS_P1;SDS_P2;PMS_P1;PMS_P2;Temp;Humidity;BMP_temperature;BMP_pressure;BME280_temperature;BME280_humidity;BME280_pressure;Samples;Min_cycle;Max_cycle;Signal;HPM_P1;HPM_P2
2022/04/25 00:00:41;;;;;;;;;;;8.90;99.90;;;;;;5115150;28;20002;-69
2022/04/25 00:03:07;;;;;;;;;;;8.90;99.90;;;;;;5114591;28;19924;-69
2022/04/25 00:05:32;;;;;;;;;;;8.90;99.90;;;;;;5114601;28;19971;-69
2022/04/25 00:07:58;;;;;;;;;;;8.90;99.90;;;;;;5096675;28;20012;-68
2022/04/25 00:10:23;;;;;;;;;;;8.90;99.90;;;;;;5114614;28;19924;-69
2022/04/25 00:12:49;;;;;;;;;;;8.90;99.90;;;;;;5114637;28;20382;-69
2022/04/25 00:15:14;;;;;;;;;;;8.90;99.90;;;;;;5114678;28;19928;-69
2022/04/25 00:17:40;;;;;;;;;;;8.90;99.90;;;;;;5096476;28;19924;-69
2022/04/25 00:20:07;;;;;;;;;;;8.90;99.90;;;;;;5114418;28;19924;-69
2022/04/25 00:22:33;;;;;;;;;;;8.80;99.90;;;;;;5096179;28;19931;-69
2022/04/25 00:24:58;;;;;;;;;;;8.80;99.90;;;;;;5096398;28;20293;-69
2022/04/25 00:27:25;;;;;;;;;;;8.80;99.90;;;;;;5114606;28;19923;-69
2022/04/25 00:29:51;;;;;;;;;;;8.80;99.90;;;;;;5079162;28;19927;-69
2022/04/25 00:32:16;;;;;;;;;;;8.80;99.90;;;;;;5114297;28;19930;-69
2022/04/25 00:34:42;;;;;;;;;;;8.80;99.90;;;;;;5114199;28;19969;-69
2022/04/25 00:37:07;;;;;;;;;;;8.80;99.90;;;;;;5096352;28;19924;-69
2022/04/25 00:39:33;;;;;;;;;;;8.80;99.90;;;;;;5114537;28;19923;-69
2022/04/25 00:41:58;;;;;;;;;;;8.80;99.90;;;;;;5114321;28;20290;-69
2022/04/25 00:44:24;;;;;;;;;;;8.80;99.90;;;;;;5113489;28;20321;-69
2022/04/25 00:46:52;;;;;;;;;;;8.70;99.90;;;;;;5114061;28;19931;-69
2022/04/25 00:49:17;;;;;;;;;;;8.80;99.90;;;;;;5096033;28;20363;-69
2022/04/25 00:51:43;;;;;;;;;;;8.80;99.90;;;;;;5113715;28;19924;-69
2022/04/25 00:54:08;;;;;;;;;;;8.70;99.90;;;;;;5096032;28;19924;-69
2022/04/25 00:56:35;;;;;;;;;;;8.70;99.90;;;;;;5114001;28;20048;-69
2022/04/25 00:59:00;;;;;;;;;;;8.70;99.90;;;;;;5114045;28;19931;-69
2022/04/25 01:01:26;;;;;;;;;;;8.70;99.90;;;;;;5095995;28;20290;-69
2022/04/25 01:03:51;;;;;;;;;;;8.70;99.90;;;;;;5114041;28;19924;-69
2022/04/25 01:06:16;;;;;;;;;;;8.70;99.90;;;;;;5114156;28;19924;-69
2022/04/25 01:08:43;;;;;;;;;;;8.70;99.90;;;;;;5113776;28;19930;-69
2022/04/25 01:11:09;;;;;;;;;;;8.70;99.90;;;;;;5095794;28;19923;-69
2022/04/25 01:13:35;;;;;;;;;;;8.70;99.90;;;;;;5114101;28;19949;-69
2022/04/25 01:16:00;;;;;;;;;;;8.60;99.90;;;;;;5095557;28;20329;-69
2022/04/25 01:18:26;;;;;;;;;;;8.60;99.90;;;;;;5113697;28;19931;-69
2022/04/25 01:20:55;;;;;;;;;;;8.60;99.90;;;;;;5114047;28;20366;-69
2022/04/25 01:28:51;;;;;;;;;;;8.50;99.90;;;;;;5113646;28;20374;-69
2022/04/25 01:31:16;;;;;;;;;;;8.50;99.90;;;;;;5113932;28;19924;-68
2022/04/25 01:33:42;;;;;;;;;;;8.50;99.90;;;;;;5113834;28;19924;-69
2022/04/25 01:36:07;;;;;;;;;;;8.50;99.90;;;;;;5113840;28;19924;-69
2022/04/25 01:38:33;;;;;;;;;;;8.50;99.90;;;;;;5095670;28;20382;-69
2022/04/25 01:40:59;;;;;;;;;;;8.50;99.90;;;;;;5078853;28;20370;-69
2022/04/25 01:43:25;;;;;;;;;;;8.50;99.90;;;;;;5113390;28;19967;-69
2022/04/25 01:45:50;;;;;;;;;;;8.50;99.90;;;;;;5113692;28;19931;-69
2022/04/25 01:48:16;;;;;;;;;;;8.50;99.90;;;;;;5095351;28;19923;-69
2022/04/25 01:50:41;;;;;;;;;;;8.50;99.90;;;;;;5113424;28;20423;-69
2022/04/25 01:53:07;;;;;;;;;;;8.50;99.90;;;;;;5113892;28;19924;-69
2022/04/25 01:55:32;;;;;;;;;;;8.50;99.90;;;;;;5096551;28;19924;-69
2022/04/25 01:57:58;;;;;;;;;;;8.50;99.90;;;;;;5117325;28;19946;-69
2022/04/25 02:00:23;;;;;;;;;;;8.50;99.90;;;;;;5117366;28;19924;-68
2022/04/25 02:02:49;;;;;;;;;;;8.50;99.90;;;;;;5098786;28;19930;-69
2022/04/25 02:05:14;;;;;;;;;;;8.40;99.90;;;;;;5117178;28;19923;-69
2022/04/25 02:07:40;;;;;;;;;;;8.40;99.90;;;;;;5117077;28;20015;-69
2022/04/25 02:10:05;;;;;;;;;;;8.40;99.90;;;;;;5117079;28;20021;-69
2022/04/25 02:12:31;;;;;;;;;;;8.30;99.90;;;;;;5116884;28;20389;-69
2022/04/25 02:14:56;;;;;;;;;;;8.30;99.90;;;;;;5098672;28;20394;-69
2022/04/25 02:17:22;;;;;;;;;;;8.30;99.90;;;;;;5116982;28;19923;-69
2022/04/25 02:19:47;;;;;;;;;;;8.30;99.90;;;;;;5116845;28;19924;-69
2022/04/25 02:22:13;;;;;;;;;;;8.30;99.90;;;;;;5117039;28;19928;-70
2022/04/25 02:24:39;;;;;;;;;;;8.30;99.90;;;;;;5116586;28;19924;-69
2022/04/25 02:27:05;;;;;;;;;;;8.30;99.90;;;;;;5116577;28;19924;-69
2022/04/25 02:29:34;;;;;;;;;;;8.30;99.90;;;;;;5116634;28;19924;-69
2022/04/25 02:32:00;;;;;;;;;;;8.30;99.90;;;;;;5116671;28;20370;-69
2022/04/25 02:34:26;;;;;;;;;;;8.20;99.90;;;;;;5098212;28;19981;-69
2022/04/25 02:36:52;;;;;;;;;;;8.20;99.90;;;;;;5116755;28;19967;-69
2022/04/25 02:39:17;;;;;;;;;;;8.20;99.90;;;;;;5116492;28;19923;-69
2022/04/25 02:41:42;;;;;;;;;;;8.20;99.90;;;;;;5116778;28;19931;-69
2022/04/25 02:44:08;;;;;;;;;;;8.20;99.90;;;;;;5116409;28;19924;-69
2022/04/25 02:46:33;;;;;;;;;;;8.20;99.90;;;;;;5081414;28;19923;-69
2022/04/25 02:48:59;;;;;;;;;;;8.10;99.90;;;;;;5116230;28;19923;-69
2022/04/25 02:51:24;;;;;;;;;;;8.20;99.90;;;;;;5116242;28;19923;-69
2022/04/25 02:53:50;;;;;;;;;;;8.10;99.90;;;;;;5116121;28;20528;-69
2022/04/25 02:56:15;;;;;;;;;;;8.00;99.90;;;;;;5115958;28;19928;-69
2022/04/25 02:58:41;;;;;;;;;;;8.00;99.90;;;;;;5116191;28;19928;-69
2022/04/25 03:01:07;;;;;;;;;;;7.90;99.90;;;;;;5097650;28;19931;-69
2022/04/25 03:03:33;;;;;;;;;;;7.90;99.90;;;;;;5097742;28;19931;-69
2022/04/25 03:05:59;;;;;;;;;;;7.90;99.90;;;;;;5097651;28;19924;-69
2022/04/25 03:08:25;;;;;;;;;;;7.90;99.90;;;;;;5115004;28;20339;-68
2022/04/25 03:10:52;;;;;;;;;;;7.80;99.90;;;;;;5115758;28;19927;-69
2022/04/25 03:13:18;;;;;;;;;;;7.90;99.90;;;;;;5115728;28;19931;-69
2022/04/25 03:15:46;;;;;;;;;;;7.80;99.90;;;;;;5115924;28;19924;-69
2022/04/25 03:18:13;;;;;;;;;;;7.70;99.90;;;;;;5097386;28;19930;-69
2022/04/25 03:20:38;;;;;;;;;;;7.70;99.90;;;;;;5115675;28;19930;-69
2022/04/25 03:23:07;;;;;;;;;;;7.70;99.90;;;;;;5097359;28;20378;-68
2022/04/25 03:25:33;;;;;;;;;;;7.70;99.90;;;;;;5115664;28;20328;-69
2022/04/25 03:27:59;;;;;;;;;;;7.70;99.90;;;;;;5115686;28;19923;-68
2022/04/25 03:30:24;;;;;;;;;;;7.70;99.90;;;;;;5115603;28;19969;-68
2022/04/25 03:32:50;;;;;;;;;;;7.70;99.90;;;;;;5115745;28;20257;-69
2022/04/25 03:35:17;;;;;;;;;;;7.70;99.90;;;;;;5115251;28;19924;-68
2022/04/25 03:37:43;;;;;;;;;;;7.60;99.90;;;;;;5096737;28;19931;-69
2022/04/25 03:40:12;;;;;;;;;;;7.70;99.90;;;;;;5115044;28;20014;-69
2022/04/25 03:42:38;;;;;;;;;;;7.70;99.90;;;;;;5097187;28;20294;-70
2022/04/25 03:45:05;;;;;;;;;;;7.60;99.90;;;;;;5115541;28;19924;-69
2022/04/25 03:47:31;;;;;;;;;;;7.60;99.90;;;;;;5115327;28;19976;-69
2022/04/25 03:49:57;;;;;;;;;;;7.60;99.90;;;;;;5097042;28;19989;-69
2022/04/25 03:52:22;;;;;;;;;;;7.60;99.90;;;;;;5092993;28;19994;-69
2022/04/25 03:57:32;;;;;;;;;;;7.60;99.90;;;;;;5094897;28;19927;-69
2022/04/25 03:59:57;;;;;;;;;;;7.60;99.90;;;;;;5094797;28;20278;-69
2022/04/25 04:02:23;;;;;;;;;;;7.60;99.90;;;;;;5094493;28;20018;-69
2022/04/25 04:04:49;;;;;;;;;;;7.60;99.90;;;;;;5093441;28;19928;-69
2022/04/25 04:07:15;;;;;;;;;;;7.60;99.90;;;;;;5094217;28;19924;-69
2022/04/25 04:09:47;;;;;;;;;;;7.60;99.90;;;;;;5094529;28;20019;-69
2022/04/25 04:12:13;;;;;;;;;;;7.60;99.90;;;;;;5094598;28;20333;-69
2022/04/25 04:14:43;;;;;;;;;;;7.50;99.90;;;;;;5094480;28;19924;-69
2022/04/25 04:17:08;;;;;;;;;;;7.50;99.90;;;;;;5094269;28;19930;-69
2022/04/25 04:19:38;;;;;;;;;;;7.60;99.90;;;;;;5094332;28;20362;-69
2022/04/25 04:22:06;;;;;;;;;;;7.60;99.90;;;;;;5093209;28;19936;-69
2022/04/25 04:24:32;;;;;;;;;;;7.50;99.90;;;;;;5094149;28;19924;-69
2022/04/25 04:27:02;;;;;;;;;;;7.50;99.90;;;;;;5094109;28;19924;-69
2022/04/25 04:29:29;;;;;;;;;;;7.50;99.90;;;;;;5094117;28;20283;-69
2022/04/25 04:31:59;;;;;;;;;;;7.50;99.90;;;;;;5092718;28;19931;-69
2022/04/25 04:34:24;;;;;;;;;;;7.50;99.90;;;;;;5092980;28;19924;-69
2022/04/25 04:36:50;;;;;;;;;;;7.50;99.90;;;;;;5094081;28;19924;-67
2022/04/25 04:39:16;;;;;;;;;;;7.50;99.90;;;;;;5094271;28;19924;-67
2022/04/25 04:41:42;;;;;;;;;;;7.50;99.90;;;;;;5075986;28;19931;-67
2022/04/25 04:44:07;;;;;;;;;;;7.50;99.90;;;;;;5092652;28;19923;-67
2022/04/25 04:46:33;;;;;;;;;;;7.50;99.90;;;;;;5092448;28;19931;-67
2022/04/25 04:48:58;;;;;;;;;;;7.50;99.90;;;;;;5092660;28;19924;-67
2022/04/25 04:51:24;;;;;;;;;;;7.50;99.90;;;;;;5103026;28;19943;-67
2022/04/25 04:53:49;;;;;;;;;;;7.50;99.90;;;;;;5095769;28;19970;-67
2022/04/25 04:56:15;;;;;;;;;;;7.50;99.90;;;;;;5114005;28;20379;-67
2022/04/25 04:58:40;;;;;;;;;;;7.50;99.90;;;;;;5113929;28;20413;-67
2022/04/25 05:01:07;;;;;;;;;;;7.50;99.90;;;;;;5078978;28;19931;-67
2022/04/25 05:03:33;;;;;;;;;;;7.50;99.90;;;;;;5114136;28;20014;-67
2022/04/25 05:05:59;;;;;;;;;;;7.60;99.90;;;;;;5113925;28;19931;-67
2022/04/25 05:08:24;;;;;;;;;;;7.50;99.90;;;;;;5079053;28;19924;-67
2022/04/25 05:10:50;;;;;;;;;;;7.50;99.90;;;;;;5113944;28;19923;-67
2022/04/25 05:13:16;;;;;;;;;;;7.60;99.90;;;;;;5095969;28;19924;-67
2022/04/25 05:15:42;;;;;;;;;;;7.50;99.90;;;;;;5095507;28;19927;-67
2022/04/25 05:18:08;;;;;;;;;;;7.60;99.90;;;;;;5095634;28;19996;-67
2022/04/25 05:20:33;;;;;;;;;;;7.60;99.90;;;;;;5113965;28;20429;-67
2022/04/25 05:22:59;;;;;;;;;;;7.70;99.90;;;;;;5114062;28;19924;-66
2022/04/25 05:25:25;;;;;;;;;;;7.60;99.90;;;;;;5113820;28;19924;-67
2022/04/25 05:27:51;;;;;;;;;;;7.60;99.90;;;;;;5113727;28;19923;-67
2022/04/25 05:30:18;;;;;;;;;;;7.60;99.90;;;;;;5114821;28;19993;-67
2022/04/25 05:32:46;;;;;;;;;;;7.60;99.90;;;;;;5118014;28;19927;-67
2022/04/25 05:35:11;;;;;;;;;;;7.70;99.90;;;;;;5117839;28;19928;-67
2022/04/25 05:37:38;;;;;;;;;;;7.60;99.90;;;;;;5117919;28;20401;-67
2022/04/25 05:40:04;;;;;;;;;;;7.70;99.90;;;;;;5099291;28;20400;-67
2022/04/25 05:42:29;;;;;;;;;;;7.70;99.90;;;;;;5118593;28;19923;-67
2022/04/25 05:44:55;;;;;;;;;;;7.80;99.90;;;;;;5099538;28;20427;-67
2022/04/25 05:47:20;;;;;;;;;;;7.80;99.90;;;;;;5099404;28;19928;-67
2022/04/25 05:52:30;;;;;;;;;;;7.80;99.90;;;;;;5098716;28;19924;-67
2022/04/25 05:54:55;;;;;;;;;;;7.80;99.90;;;;;;5117325;28;20267;-67
2022/04/25 05:57:22;;;;;;;;;;;7.90;99.90;;;;;;5117301;28;19928;-67
2022/04/25 05:59:50;;;;;;;;;;;7.90;99.90;;;;;;5099558;28;20362;-67
2022/04/25 06:02:17;;;;;;;;;;;7.90;99.90;;;;;;5117264;28;19923;-67
2022/04/25 06:04:42;;;;;;;;;;;7.90;99.90;;;;;;5117134;28;19924;-67
2022/04/25 06:07:08;;;;;;;;;;;8.00;99.90;;;;;;5117058;28;19931;-67
2022/04/25 06:09:34;;;;;;;;;;;8.00;99.90;;;;;;5116927;28;20395;-67
2022/04/25 06:12:00;;;;;;;;;;;8.00;99.90;;;;;;5116785;28;19924;-67
2022/04/25 06:14:25;;;;;;;;;;;8.00;99.90;;;;;;5117092;28;19923;-67
2022/04/25 06:16:51;;;;;;;;;;;8.00;99.90;;;;;;5117080;28;19927;-67
2022/04/25 06:19:17;;;;;;;;;;;8.00;99.90;;;;;;5116968;28;19977;-67
2022/04/25 06:21:42;;;;;;;;;;;8.00;99.90;;;;;;5117001;28;19955;-67
2022/04/25 06:24:08;;;;;;;;;;;8.00;99.90;;;;;;5116596;28;19931;-67
2022/04/25 06:26:34;;;;;;;;;;;8.00;99.90;;;;;;5098365;28;20006;-67
2022/04/25 06:28:59;;;;;;;;;;;8.00;99.90;;;;;;5098430;28;20298;-67
2022/04/25 06:31:25;;;;;;;;;;;8.00;99.90;;;;;;5116509;28;19923;-69
2022/04/25 06:33:50;;;;;;;;;;;8.00;99.90;;;;;;5116584;28;19928;-69
2022/04/25 06:36:16;;;;;;;;;;;8.10;99.90;;;;;;5098652;28;19924;-67
2022/04/25 06:38:41;;;;;;;;;;;8.10;99.90;;;;;;5116679;28;19931;-67
2022/04/25 06:41:07;;;;;;;;;;;8.20;99.90;;;;;;5116167;28;19924;-67
2022/04/25 06:43:33;;;;;;;;;;;8.20;99.90;;;;;;5097172;28;19928;-67
2022/04/25 06:45:58;;;;;;;;;;;8.30;99.90;;;;;;5116445;28;20057;-67
2022/04/25 06:48:23;;;;;;;;;;;8.20;99.90;;;;;;5116429;28;19924;-67
2022/04/25 06:50:49;;;;;;;;;;;8.30;99.90;;;;;;5097748;28;19924;-67
2022/04/25 06:53:15;;;;;;;;;;;8.20;99.90;;;;;;5116641;28;20413;-67
2022/04/25 06:55:40;;;;;;;;;;;8.20;99.90;;;;;;5116464;28;20353;-67
2022/04/25 06:58:06;;;;;;;;;;;8.20;99.90;;;;;;5098179;28;20010;-67
2022/04/25 07:00:32;;;;;;;;;;;8.20;99.90;;;;;;5116340;28;19931;-67
2022/04/25 07:02:58;;;;;;;;;;;8.20;99.90;;;;;;5116190;28;19933;-67
2022/04/25 07:05:24;;;;;;;;;;;8.20;99.90;;;;;;5116048;28;19976;-67
2022/04/25 07:07:50;;;;;;;;;;;8.20;99.90;;;;;;5115960;28;19928;-67
2022/04/25 07:10:15;;;;;;;;;;;8.20;99.90;;;;;;5115803;28;19928;-67
2022/04/25 07:12:42;;;;;;;;;;;8.20;99.90;;;;;;5097716;28;19995;-66
2022/04/25 07:15:08;;;;;;;;;;;8.20;99.90;;;;;;5115908;28;19924;-67
2022/04/25 07:17:33;;;;;;;;;;;8.20;99.90;;;;;;5115950;28;19928;-67
2022/04/25 07:19:59;;;;;;;;;;;8.20;99.90;;;;;;5115901;28;20275;-67
2022/04/25 07:30:37;;;;;;;;;;;8.30;99.90;;;;;;5115419;28;20398;-67
2022/04/25 07:33:02;;;;;;;;;;;8.40;99.90;;;;;;5115629;28;19924;-67
2022/04/25 07:35:28;;;;;;;;;;;8.40;99.90;;;;;;5115474;28;19931;-67
2022/04/25 07:37:55;;;;;;;;;;;8.40;99.90;;;;;;5115564;28;19973;-67
2022/04/25 07:40:21;;;;;;;;;;;8.30;99.90;;;;;;5097315;28;20298;-67
2022/04/25 07:42:47;;;;;;;;;;;8.40;99.90;;;;;;5097266;28;20339;-67
2022/04/25 07:45:12;;;;;;;;;;;8.40;99.90;;;;;;5097205;28;19924;-67
2022/04/25 07:47:42;;;;;;;;;;;8.50;99.90;;;;;;5115176;28;19924;-67
2022/04/25 07:50:11;;;;;;;;;;;8.60;99.90;;;;;;5097112;28;19947;-67
2022/04/25 07:52:37;;;;;;;;;;;8.60;99.90;;;;;;5114513;28;19959;-67
2022/04/25 07:55:02;;;;;;;;;;;8.60;99.90;;;;;;5114856;28;20016;-67
2022/04/25 07:57:28;;;;;;;;;;;8.50;99.90;;;;;;5115013;28;20358;-67
2022/04/25 07:59:54;;;;;;;;;;;8.40;99.90;;;;;;5115162;28;19964;-67
2022/04/25 08:02:20;;;;;;;;;;;8.50;99.90;;;;;;5096875;28;20014;-67
2022/04/25 08:04:45;;;;;;;;;;;8.40;99.90;;;;;;5114904;28;19924;-67
2022/04/25 08:07:11;;;;;;;;;;;8.50;99.90;;;;;;5114937;28;19989;-67
2022/04/25 08:09:37;;;;;;;;;;;8.50;99.90;;;;;;5096781;28;19928;-67
2022/04/25 08:20:15;;;;;;;;;;;8.50;99.90;;;;;;5114700;28;19977;-67
2022/04/25 08:22:40;;;;;;;;;;;8.50;99.90;;;;;;5114505;28;19931;-67
2022/04/25 08:25:07;;;;;;;;;;;8.50;99.90;;;;;;5114384;28;20018;-67
2022/04/25 08:27:33;;;;;;;;;;;8.50;99.90;;;;;;5096128;28;19924;-69
2022/04/25 08:29:59;;;;;;;;;;;8.70;99.90;;;;;;5114642;28;20298;-69
2022/04/25 08:32:25;;;;;;;;;;;8.70;99.90;;;;;;5096244;28;20026;-69
2022/04/25 08:34:50;;;;;;;;;;;8.60;99.90;;;;;;5096415;28;19973;-69
2022/04/25 08:37:16;;;;;;;;;;;8.70;99.90;;;;;;5096074;28;19930;-69
2022/04/25 08:39:41;;;;;;;;;;;8.70;99.90;;;;;;5096027;28;20406;-69
2022/04/25 08:42:09;;;;;;;;;;;8.70;99.90;;;;;;5114115;28;19933;-69
2022/04/25 08:44:34;;;;;;;;;;;8.70;99.90;;;;;;5114376;28;19947;-69
2022/04/25 08:47:01;;;;;;;;;;;8.70;99.90;;;;;;5114071;28;19923;-69
2022/04/25 08:49:26;;;;;;;;;;;8.80;99.90;;;;;;5114241;28;19924;-69
2022/04/25 08:51:58;;;;;;;;;;;8.80;99.90;;;;;;5113941;28;19923;-69
2022/04/25 08:54:30;;;;;;;;;;;9.00;99.90;;;;;;5114201;28;19926;-69
2022/04/25 08:56:56;;;;;;;;;;;9.10;99.90;;;;;;5096080;28;19931;-69
2022/04/25 08:59:23;;;;;;;;;;;9.30;99.90;;;;;;5114061;28;20336;-69
2022/04/25 09:01:49;;;;;;;;;;;9.30;99.90;;;;;;5114211;28;19969;-69
2022/04/25 09:04:14;;;;;;;;;;;9.30;99.90;;;;;;5113902;28;19928;-69
2022/04/25 09:06:40;;;;;;;;;;;9.40;99.90;;;;;;5117385;28;19927;-69
2022/04/25 09:09:06;;;;;;;;;;;9.40;99.90;;;;;;5118167;28;20356;-69
2022/04/25 09:14:16;;;;;;;;;;;9.20;99.90;;;;;;5118533;28;19969;-69
2022/04/25 09:16:42;;;;;;;;;;;9.30;99.90;;;;;;5100065;28;19927;-69
2022/04/25 09:19:07;;;;;;;;;;;9.30;99.90;;;;;;5118089;28;20399;-69
2022/04/25 09:21:41;;;;;;;;;;;9.20;99.90;;;;;;5118118;28;19924;-69
2022/04/25 09:24:19;;;;;;;;;;;9.10;99.90;;;;;;5118224;28;19930;-69
2022/04/25 09:26:45;;;;;;;;;;;9.20;99.90;;;;;;5118264;28;19924;-69
2022/04/25 09:29:11;;;;;;;;;;;9.20;99.90;;;;;;5117991;28;19954;-69
2022/04/25 09:31:46;;;;;;;;;;;9.30;99.90;;;;;;5117940;28;20378;-69
2022/04/25 09:34:15;;;;;;;;;;;9.30;99.90;;;;;;5117703;28;19928;-69
2022/04/25 09:36:48;;;;;;;;;;;9.20;99.90;;;;;;5100065;28;19924;-69
2022/04/25 09:39:27;;;;;;;;;;;9.20;99.90;;;;;;5099649;28;19924;-69
2022/04/25 09:41:52;;;;;;;;;;;9.20;99.90;;;;;;5117543;28;20386;-69
2022/04/25 09:44:18;;;;;;;;;;;9.30;99.90;;;;;;5099306;28;19931;-69
2022/04/25 09:46:47;;;;;;;;;;;9.30;99.90;;;;;;5099154;28;20302;-69
2022/04/25 09:49:18;;;;;;;;;;;9.50;99.90;;;;;;5099260;28;19923;-69
2022/04/25 09:52:02;;;;;;;;;;;9.30;99.90;;;;;;5117376;28;19923;-69
2022/04/25 09:54:28;;;;;;;;;;;9.40;99.90;;;;;;5082584;28;19924;-69
2022/04/25 09:56:53;;;;;;;;;;;9.30;99.90;;;;;;5117536;28;20010;-69
2022/04/25 09:59:21;;;;;;;;;;;9.20;99.90;;;;;;5117386;28;19990;-69
2022/04/25 10:02:00;;;;;;;;;;;9.10;99.90;;;;;;5117423;28;20019;-69
2022/04/25 10:04:31;;;;;;;;;;;9.30;99.90;;;;;;5117182;28;19933;-69
2022/04/25 10:06:59;;;;;;;;;;;9.20;99.90;;;;;;5117265;28;20019;-69
2022/04/25 10:09:24;;;;;;;;;;;9.40;99.90;;;;;;5117615;28;19924;-69
2022/04/25 10:11:52;;;;;;;;;;;9.50;99.90;;;;;;5117185;28;20271;-69
2022/04/25 10:14:18;;;;;;;;;;;9.50;99.90;;;;;;5117185;28;19924;-69
2022/04/25 10:16:45;;;;;;;;;;;9.50;99.90;;;;;;5116917;28;19924;-69
2022/04/25 10:19:10;;;;;;;;;;;9.40;99.90;;;;;;5117386;28;20006;-69
2022/04/25 10:21:36;;;;;;;;;;;9.60;99.90;;;;;;5117030;28;19963;-69
2022/04/25 10:24:02;;;;;;;;;;;9.60;99.90;;;;;;5116753;28;19924;-69
2022/04/25 10:26:29;;;;;;;;;;;9.60;99.90;;;;;;5116721;28;19996;-69
2022/04/25 10:28:56;;;;;;;;;;;9.70;99.90;;;;;;5098446;28;19931;-69
2022/04/25 10:31:23;;;;;;;;;;;9.70;99.90;;;;;;5116886;28;19928;-69
2022/04/25 10:33:53;;;;;;;;;;;9.60;99.90;;;;;;5098565;28;19924;-68
2022/04/25 10:36:37;;;;;;;;;;;9.60;99.90;;;;;;5098455;28;19931;-69
2022/04/25 10:39:14;;;;;;;;;;;9.80;99.90;;;;;;5098284;28;20406;-69
2022/04/25 10:44:28;;;;;;;;;;;9.70;99.90;;;;;;5116810;28;20289;-67
2022/04/25 10:47:03;;;;;;;;;;;9.80;99.90;;;;;;5098388;28;20019;-67
2022/04/25 10:49:38;;;;;;;;;;;9.80;99.90;;;;;;5117004;28;19924;-67
2022/04/25 10:52:07;;;;;;;;;;;9.90;99.90;;;;;;5116286;28;20031;-67
2022/04/25 10:54:49;;;;;;;;;;;9.90;99.90;;;;;;5116468;28;19924;-67
2022/04/25 10:57:15;;;;;;;;;;;10.00;99.90;;;;;;5098297;28;19924;-67
2022/04/25 10:59:40;;;;;;;;;;;10.10;99.90;;;;;;5116330;28;19923;-67
2022/04/25 11:02:22;;;;;;;;;;;10.20;99.90;;;;;;5116244;28;19924;-67
2022/04/25 11:05:07;;;;;;;;;;;10.10;99.90;;;;;;5116076;28;19923;-67
2022/04/25 11:07:33;;;;;;;;;;;10.00;99.90;;;;;;5097844;28;19930;-67
2022/04/25 11:09:58;;;;;;;;;;;10.40;99.90;;;;;;5115811;28;19924;-67
2022/04/25 11:12:43;;;;;;;;;;;10.50;99.90;;;;;;5097616;28;20290;-67
2022/04/25 11:15:08;;;;;;;;;;;10.50;99.90;;;;;;5116066;28;19958;-67
2022/04/25 11:17:34;;;;;;;;;;;10.20;99.90;;;;;;5115830;28;19960;-67
2022/04/25 11:19:59;;;;;;;;;;;10.20;99.90;;;;;;5115802;28;19930;-67
2022/04/25 11:22:31;;;;;;;;;;;10.30;99.90;;;;;;5115545;28;19932;-67
2022/04/25 11:25:17;;;;;;;;;;;10.50;99.90;;;;;;5097289;28;19946;-67
2022/04/25 11:28:01;;;;;;;;;;;10.80;99.90;;;;;;5114936;28;20346;-67
2022/04/25 11:30:27;;;;;;;;;;;;;;;;;;5115525;28;19924;-67
2022/04/25 11:32:53;;;;;;;;;;;10.80;99.90;;;;;;5115369;28;20302;-67
2022/04/25 11:35:22;;;;;;;;;;;10.80;99.90;;;;;;5115615;28;19924;-67
2022/04/25 11:37:48;;;;;;;;;;;10.80;99.90;;;;;;5115672;28;19923;-67
2022/04/25 11:40:14;;;;;;;;;;;10.80;99.90;;;;;;5115334;28;19926;-67
2022/04/25 11:42:40;;;;;;;;;;;11.00;99.90;;;;;;5115353;28;19945;-67
2022/04/25 11:45:06;;;;;;;;;;;10.90;99.90;;;;;;5115102;28;20030;-67
2022/04/25 11:47:32;;;;;;;;;;;10.90;99.90;;;;;;5115051;28;20006;-67
2022/04/25 11:50:02;;;;;;;;;;;11.10;99.90;;;;;;5115320;28;19930;-67
2022/04/25 11:52:28;;;;;;;;;;;11.20;99.90;;;;;;5096792;28;19924;-67
2022/04/25 11:54:54;;;;;;;;;;;11.10;99.90;;;;;;5115037;28;20302;-67
2022/04/25 11:57:20;;;;;;;;;;;11.00;99.90;;;;;;5115056;28;19969;-66
2022/04/25 11:59:45;;;;;;;;;;;10.80;99.90;;;;;;5117888;28;20378;-67
2022/04/25 12:02:11;;;;;;;;;;;10.80;99.90;;;;;;5114837;28;19927;-67
2022/04/25 12:04:37;;;;;;;;;;;10.80;99.90;;;;;;5114803;28;19946;-67
2022/04/25 12:07:03;;;;;;;;;;;10.90;99.90;;;;;;5114907;28;19924;-67
2022/04/25 12:15:34;;;;;;;;;;;11.10;99.90;;;;;;5114189;28;20010;-67
2022/04/25 12:18:13;;;;;;;;;;;10.80;99.90;;;;;;5114804;28;19924;-67
2022/04/25 12:20:42;;;;;;;;;;;11.00;99.90;;;;;;5114530;28;20450;-67
2022/04/25 12:23:08;;;;;;;;;;;10.90;99.90;;;;;;5114837;28;19927;-67
2022/04/25 12:25:38;;;;;;;;;;;11.00;99.90;;;;;;5114716;28;19924;-67
2022/04/25 12:28:05;;;;;;;;;;;11.30;99.90;;;;;;5114449;28;20386;-67
2022/04/25 12:30:51;;;;;;;;;;;11.20;99.90;;;;;;5096257;28;19923;-67
2022/04/25 12:33:25;;;;;;;;;;;11.10;99.90;;;;;;5113584;28;19931;-67
2022/04/25 12:36:06;;;;;;;;;;;11.50;99.90;;;;;;5114709;28;20380;-67
2022/04/25 12:38:32;;;;;;;;;;;11.60;99.90;;;;;;5114469;28;20313;-67
2022/04/25 12:40:58;;;;;;;;;;;;;;;;;;5114314;28;19930;-68
2022/04/25 12:43:54;;;;;;;;;;;11.70;99.90;;;;;;5114409;28;19924;-67
2022/04/25 12:46:39;;;;;;;;;;;11.80;99.90;;;;;;5097419;28;19971;-67
2022/04/25 12:49:06;;;;;;;;;;;11.70;99.90;;;;;;5114492;28;19930;-67
2022/04/25 12:51:35;;;;;;;;;;;11.70;99.90;;;;;;5113920;28;19963;-67
2022/04/25 12:54:02;;;;;;;;;;;11.60;99.90;;;;;;5114700;28;20050;-67
2022/04/25 12:56:28;;;;;;;;;;;;;;;;;;5113997;28;19927;-69
2022/04/25 12:58:54;;;;;;;;;;;;;;;;;;5114318;28;19924;-69
2022/04/25 13:01:20;;;;;;;;;;;;;;;;;;5113938;28;19931;-69
2022/04/25 13:03:45;;;;;;;;;;;;;;;;;;5114042;28;19975;-69
2022/04/25 13:06:11;;;;;;;;;;;;;;;;;;5113975;28;19923;-69
2022/04/25 13:08:38;;;;;;;;;;;;;;;;;;5113940;28;19969;-67
2022/04/25 13:11:04;;;;;;;;;;;;;;;;;;5114229;28;20263;-67
2022/04/25 13:13:30;;;;;;;;;;;;;;;;;;5114047;28;19931;-67
2022/04/25 13:15:57;;;;;;;;;;;;;;;;;;5116754;28;19931;-67
2022/04/25 13:18:23;;;;;;;;;;;;;;;;;;5114075;28;19924;-67
2022/04/25 13:20:49;;;;;;;;;;;;;;;;;;5114140;28;19973;-67
2022/04/25 13:23:15;;;;;;;;;;;;;;;;;;5112665;28;19931;-67
2022/04/25 13:25:41;;;;;;;;;;;;;;;;;;5114111;28;19924;-67
2022/04/25 13:28:07;;;;;;;;;;;;;;;;;;5095495;28;19924;-67
2022/04/25 13:30:33;;;;;;;;;;;;;;;;;;5113908;28;19924;-67
2022/04/25 13:32:59;;;;;;;;;;;;;;;;;;5113852;28;20402;-67
2022/04/25 13:35:26;;;;;;;;;;;;;;;;;;5113763;28;19924;-68
2022/04/25 13:37:52;;;;;;;;;;;;;;;;;;5113561;28;20022;-68
2022/04/25 13:40:19;;;;;;;;;;;;;;;;;;5113618;28;19924;-67
2022/04/25 13:42:47;;;;;;;;;;;;;;;;;;5113933;28;19931;-67
2022/04/25 13:45:13;;;;;;;;;;;;;;;;;;5095321;28;19973;-67
2022/04/25 13:47:41;;;;;;;;;;;;;;;;;;5095367;28;19924;-67
2022/04/25 13:50:07;;;;;;;;;;;;;;;;;;5113771;28;20344;-67
2022/04/25 13:52:32;;;;;;;;;;;;;;;;;;5097797;28;19963;-67
2022/04/25 13:54:58;;;;;;;;;;;;;;;;;;5099041;28;19928;-67
2022/04/25 13:57:24;;;;;;;;;;;;;;;;;;5099023;28;19928;-67
2022/04/25 13:59:50;;;;;;;;;;;;;;;;;;5117556;28;20413;-67
2022/04/25 14:05:01;;;;;;;;;;;;;;;;;;5117014;28;20419;-67
2022/04/25 14:07:26;;;;;;;;;;;;;;;;;;5117476;28;19928;-67
2022/04/25 14:09:52;;;;;;;;;;;;;;;;;;5117239;28;20060;-67
2022/04/25 14:12:18;;;;;;;;;;;;;;;;;;5117367;28;19923;-67
2022/04/25 14:14:45;;;;;;;;;;;11.50;99.90;;;;;;5117279;28;19923;-67
2022/04/25 14:17:10;;;;;;;;;;;11.60;99.90;;;;;;5117059;28;19969;-67
2022/04/25 14:19:36;;;;;;;;;;;11.80;99.90;;;;;;5116815;28;19927;-67
2022/04/25 14:22:01;;;;;;;;;;;11.80;99.90;;;;;;5117151;28;19980;-67
2022/04/25 14:24:27;;;;;;;;;;;11.80;99.90;;;;;;5098639;28;19924;-67
2022/04/25 14:26:52;;;;;;;;;;;11.90;99.90;;;;;;5116798;28;19969;-67
2022/04/25 14:29:18;;;;;;;;;;;11.90;99.90;;;;;;5117077;28;20440;-67
2022/04/25 14:31:43;;;;;;;;;;;12.10;99.90;;;;;;5117220;28;20374;-67
2022/04/25 14:34:09;;;;;;;;;;;12.20;99.90;;;;;;5100517;28;19930;-67
2022/04/25 14:36:34;;;;;;;;;;;12.30;99.90;;;;;;5116570;28;19928;-68
2022/04/25 14:39:00;;;;;;;;;;;12.30;99.90;;;;;;5116854;28;20395;-67
2022/04/25 14:41:27;;;;;;;;;;;12.20;99.90;;;;;;5116781;28;20278;-67
2022/04/25 14:43:52;;;;;;;;;;;12.10;99.90;;;;;;5098125;28;19930;-67
2022/04/25 14:46:18;;;;;;;;;;;12.20;99.90;;;;;;5098219;28;19924;-67
2022/04/25 14:48:43;;;;;;;;;;;12.20;99.90;;;;;;5116300;28;19931;-67
2022/04/25 14:56:37;;;;;;;;;;;12.00;99.90;;;;;;5116538;28;19977;-67
2022/04/25 14:59:03;;;;;;;;;;;;;;;;;;5116074;28;19928;-68
2022/04/25 15:01:29;;;;;;;;;;;;;;;;;;5116291;28;19924;-68
2022/04/25 15:03:56;;;;;;;;;;;;;;;;;;5096840;28;20009;-67
2022/04/25 15:06:22;;;;;;;;;;;;;;;;;;5097790;28;20394;-67
2022/04/25 15:08:48;;;;;;;;;;;;;;;;;;5116126;28;19931;-67
2022/04/25 15:11:14;;;;;;;;;;;;;;;;;;5097985;28;19923;-67
2022/04/25 15:13:39;;;;;;;;;;;;;;;;;;5115770;28;20382;-67
2022/04/25 15:16:05;;;;;;;;;;;;;;;;;;5116100;28;19928;-67
2022/04/25 15:18:31;;;;;;;;;;;;;;;;;;5115898;28;20417;-67
2022/04/25 15:20:57;;;;;;;;;;;;;;;;;;5115627;28;19930;-67
2022/04/25 15:23:23;;;;;;;;;;;;;;;;;;5115513;28;19924;-68
2022/04/25 15:25:49;;;;;;;;;;;;;;;;;;5115897;28;19969;-67
2022/04/25 15:28:14;;;;;;;;;;;12.00;99.90;;;;;;5115757;28;19947;-68